Terminal Aerodrome Forecast
Issued by NWS South Bend, IN

Home | Current Version | Previous Version | Text Only | Print | Product List | Glossary Off
Versions: 1 2 3 4 5 6 7 8 9 10 11 12 13 14 15 16 17

000
FTUS43 KIWX 021700
TAFSBN
TAF
KSBN 021720Z 0218/0318 24009KT P6SM FEW150
     FM030000 19006KT P6SM SCT200
     FM031400 21013KT P6SM BKN100=

USA.gov is the U.S. government's official web portal to all federal, state and local government web resources and services.